createdAt,value
2017-05-13T09:15:13.898Z,10033
2017-05-13T09:16:15.547Z,10033.2
2017-05-13T09:17:17.174Z,10033.6
2017-05-13T09:18:18.843Z,10033.5
2017-05-13T09:49:32.211Z,1003.5
2017-05-13T09:50:33.437Z,1003.5
2017-05-13T09:51:52.137Z,6722.2
2017-05-13T09:52:53.778Z,10034.9
2017-05-13T09:53:47.425Z,672.2
2017-05-13T09:54:48.651Z,1003.5
2017-05-13T09:55:49.863Z,1003.5
2017-05-13T09:56:51.093Z,1003.6
2017-05-13T09:57:52.364Z,1003.5
2017-05-13T09:58:53.584Z,1003.6
2017-05-13T09:59:54.815Z,1003.5
2017-05-13T10:00:56.046Z,1003.6
2017-05-13T10:01:57.261Z,1003.6
2017-05-13T10:02:58.501Z,1003.5
2017-05-13T10:04:00.139Z,1003.6
2017-05-13T10:05:01.385Z,1003.6
2017-05-13T10:06:02.962Z,1003.6
2017-05-13T10:07:04.180Z,1003.6
2017-05-13T10:08:05.422Z,1003.6
2017-05-13T10:09:06.663Z,1003.6
2017-05-13T10:10:07.875Z,1003.6
2017-05-13T10:11:09.099Z,1003.6
2017-05-13T10:12:10.320Z,1003.7
2017-05-13T10:13:11.548Z,1003.7
2017-05-13T10:14:12.769Z,1003.7
2017-05-13T10:15:14.010Z,1003.7
2017-05-13T10:16:15.232Z,1003.7
2017-05-13T10:17:16.808Z,1003.7
2017-05-13T10:18:18.444Z,1003.7
2017-05-13T10:19:19.663Z,1003.7
2017-05-13T10:20:20.901Z,1003.7
2017-05-13T10:21:22.116Z,1003.7
2017-05-13T10:22:23.394Z,1003.7
2017-05-13T10:23:24.623Z,1003.7
2017-05-13T10:24:25.861Z,1003.7
2017-05-13T10:25:27.084Z,1003.7
2017-05-13T10:26:28.731Z,1003.8
2017-05-13T10:27:29.999Z,1003.7
2017-05-13T10:28:31.212Z,1003.7
2017-05-13T10:29:32.449Z,1003.7
2017-05-13T10:30:33.687Z,1003.7
2017-05-13T10:31:34.926Z,1003.7
2017-05-13T10:32:36.138Z,1003.7
2017-05-13T10:33:37.365Z,1003.7
2017-05-13T10:34:38.609Z,1003.8
2017-05-13T10:35:39.828Z,1003.7
2017-05-13T10:36:41.046Z,1003.7
2017-05-13T10:37:42.278Z,1003.7
2017-05-13T10:38:43.507Z,1003.6
2017-05-13T10:39:45.104Z,1003.6
2017-05-13T10:40:46.340Z,1003.6
2017-05-13T10:41:47.570Z,1003.6
2017-05-13T10:42:48.797Z,1003.7
2017-05-13T10:43:50.021Z,1003.6
2017-05-13T10:44:51.259Z,1003.6
2017-05-13T10:45:52.484Z,1003.7
2017-05-13T10:46:53.715Z,1003.6
2017-05-13T10:47:54.936Z,1003.6
2017-05-13T10:48:56.169Z,1003.6
2017-05-13T10:49:57.403Z,1003.6
2017-05-13T10:50:59.033Z,1003.6
2017-05-13T10:52:00.261Z,1003.6
2017-05-13T10:53:01.486Z,1003.6
2017-05-13T10:54:02.727Z,1003.6
2017-05-13T10:55:03.988Z,1003.6
2017-05-13T10:56:05.215Z,1003.6
2017-05-13T10:57:06.445Z,1003.6
2017-05-13T10:58:07.662Z,1003.6
2017-05-13T10:59:08.894Z,1003.5
2017-05-13T11:00:10.527Z,1003.6
2017-05-13T11:01:11.746Z,1003.6
2017-05-13T11:02:12.977Z,1003.5
2017-05-13T11:03:14.199Z,1003.6
2017-05-13T11:04:15.433Z,1003.6
2017-05-13T11:05:16.650Z,1003.6
2017-05-13T11:06:17.885Z,1003.6
2017-05-13T11:07:19.107Z,1003.6
2017-05-13T11:08:20.330Z,1003.6
2017-05-13T11:09:21.554Z,1003.6
2017-05-13T11:10:22.780Z,1003.6
2017-05-13T11:11:24.016Z,1003.6
2017-05-13T11:12:25.230Z,1003.6
2017-05-13T11:13:26.460Z,1003.6
2017-05-13T11:14:27.687Z,1003.6
2017-05-13T11:15:28.926Z,1003.6
2017-05-13T11:16:30.150Z,1003.6
2017-05-13T11:17:31.371Z,1003.6
2017-05-13T11:18:32.598Z,1003.7
2017-05-13T11:19:33.832Z,1003.6
2017-05-13T11:20:35.077Z,1003.5
2017-05-13T11:21:36.291Z,1003.6
2017-05-13T11:22:37.937Z,1003.6
2017-05-13T11:23:39.180Z,1003.5
2017-05-13T11:24:40.416Z,1003.5
2017-05-13T11:25:41.637Z,1003.5
2017-05-13T11:26:42.869Z,1003.5
2017-05-13T11:27:44.096Z,1003.5
2017-05-13T11:28:45.313Z,1003.5
2017-05-13T11:29:46.539Z,1003.5
2017-05-13T11:30:47.776Z,1003.5
2017-05-13T11:31:49.001Z,1003.5
2017-05-13T11:32:50.218Z,1003.4
2017-05-13T11:33:51.441Z,1003.5
2017-05-13T11:34:52.667Z,1003.5
2017-05-13T11:35:53.898Z,1003.5
2017-05-13T11:36:55.132Z,1003.5
2017-05-13T11:37:56.350Z,1003.5
2017-05-13T11:38:57.934Z,1003.5
2017-05-13T11:39:59.153Z,1003.5
2017-05-13T11:41:00.380Z,1003.5
2017-05-13T11:42:01.608Z,1003.5
2017-05-13T11:43:02.846Z,1003.5
2017-05-13T11:44:04.077Z,1003.5
2017-05-13T11:45:05.301Z,1003.5
2017-05-13T11:46:06.524Z,1003.5
2017-05-13T11:47:07.745Z,1003.5
2017-05-13T11:48:09.304Z,1003.5
2017-05-13T11:49:10.527Z,1003.5
2017-05-13T11:50:11.749Z,1003.5
2017-05-13T11:51:12.975Z,1003.5
2017-05-13T11:52:14.536Z,1003.5
2017-05-13T11:53:15.773Z,1003.5
2017-05-13T11:54:16.993Z,1003.5
2017-05-13T11:55:18.239Z,1003.5
2017-05-13T11:56:19.457Z,1003.5
2017-05-13T11:57:20.674Z,1003.5
2017-05-13T11:58:22.247Z,1003.5
2017-05-13T11:59:23.475Z,1003.5
2017-05-13T12:00:24.718Z,1003.5
2017-05-13T12:01:25.941Z,1003.5
2017-05-13T12:02:27.162Z,1003.5
2017-05-13T12:03:28.441Z,1003.6
2017-05-13T12:04:29.676Z,1003.5
2017-05-13T12:05:30.894Z,1003.5
2017-05-13T12:06:32.146Z,1003.5
2017-05-13T12:07:33.382Z,1003.5
2017-05-13T12:08:34.615Z,1003.5
2017-05-13T12:09:35.855Z,1003.5
2017-05-13T12:10:37.068Z,1003.5
2017-05-13T12:11:38.299Z,1003.6
2017-05-13T12:12:39.514Z,1003.6
2017-05-13T12:13:40.743Z,1003.6
2017-05-13T12:14:41.967Z,1003.6
2017-05-13T12:15:43.189Z,1003.6
2017-05-13T12:16:44.780Z,1003.6
2017-05-13T12:17:46.329Z,1003.6
2017-05-13T12:18:47.970Z,1003.6
2017-05-13T12:19:49.205Z,1003.7
2017-05-13T12:20:50.471Z,1003.6
2017-05-13T12:21:51.700Z,1003.7
2017-05-13T12:22:52.920Z,1003.8
2017-05-13T12:23:54.153Z,1003.8
2017-05-13T12:24:55.415Z,1003.8
2017-05-13T12:25:56.659Z,1003.8
2017-05-13T12:26:57.892Z,1003.9
2017-05-13T12:27:59.122Z,1003.9
2017-05-13T12:29:00.346Z,1003.9
2017-05-13T12:30:01.977Z,1003.9
2017-05-13T12:30:38.938Z,672.2
2017-05-13T12:31:40.162Z,1003.9
2017-05-13T12:32:41.375Z,1003.9
2017-05-13T12:33:42.607Z,1003.9
2017-05-13T12:34:43.847Z,1004
2017-05-13T12:35:45.483Z,1004.1
2017-05-13T12:36:46.720Z,1004
2017-05-13T12:37:47.955Z,1004
2017-05-13T12:38:49.170Z,1004
2017-05-13T12:39:50.393Z,1004
2017-05-13T12:40:51.616Z,1004
2017-05-13T12:41:52.862Z,1004.1
2017-05-13T12:42:54.100Z,1004.1
2017-05-13T12:43:55.324Z,1004.1
2017-05-13T12:44:56.568Z,1004.1
2017-05-13T12:45:57.811Z,1004.1
2017-05-13T12:46:59.034Z,1004
2017-05-13T12:48:00.253Z,1004.1
2017-05-13T12:49:01.480Z,1004.1
2017-05-13T12:50:02.724Z,1004.1
2017-05-13T12:51:04.280Z,1004.1
2017-05-13T12:52:05.873Z,1004.2
2017-05-13T12:53:07.178Z,1004.1
2017-05-13T12:54:08.417Z,1004.1
2017-05-13T12:55:09.648Z,1004.1
2017-05-13T12:56:10.875Z,1004.2
2017-05-13T12:57:12.123Z,1004.1
2017-05-13T12:58:13.336Z,1004.1
2017-05-13T12:59:14.905Z,1004.2
2017-05-13T13:00:16.129Z,1004.1
2017-05-13T13:01:17.357Z,1004.2
2017-05-13T13:02:18.924Z,1004.2
2017-05-13T13:03:20.157Z,1004.2
2017-05-13T13:04:21.373Z,1004.2
2017-05-13T13:05:22.584Z,1004.2
2017-05-13T13:06:23.812Z,1004.1
2017-05-13T13:07:25.087Z,1004.2
2017-05-13T13:08:26.331Z,1004.3
2017-05-13T13:09:27.544Z,1004.2
2017-05-13T13:10:28.776Z,1004.2
2017-05-13T13:11:30.020Z,1004.3
2017-05-13T13:12:31.240Z,1004.2
2017-05-13T13:13:32.467Z,1004.3
2017-05-13T13:14:33.692Z,1004.3
2017-05-13T13:15:34.926Z,1004.3
2017-05-13T13:16:36.152Z,1004.3
2017-05-13T13:17:37.383Z,1004.4
2017-05-13T13:18:38.613Z,1004.3
2017-05-13T13:19:39.839Z,1004.4
2017-05-13T13:20:41.065Z,1004.3
2017-05-13T13:21:42.292Z,1004.4
2017-05-13T13:22:43.525Z,1004.3
2017-05-13T13:23:44.754Z,1004.3
2017-05-13T13:24:45.977Z,1004.4
2017-05-13T13:25:47.208Z,1004.3
2017-05-13T13:26:48.788Z,1004.3
2017-05-13T13:27:50.051Z,1004.3
2017-05-13T13:28:51.278Z,1004.3
2017-05-13T13:29:52.501Z,1004.3
2017-05-13T13:30:53.737Z,1004.3
2017-05-13T13:31:54.974Z,1004.3
2017-05-13T13:32:56.201Z,1004.3
2017-05-13T13:33:57.423Z,1004.3
2017-05-13T13:34:58.642Z,1004.3
2017-05-13T13:35:59.887Z,1004.2
2017-05-13T13:37:01.112Z,1004.2
2017-05-13T13:38:02.332Z,1004.2
2017-05-13T13:39:03.568Z,1004.2
2017-05-13T13:40:04.780Z,1004.3
2017-05-13T13:41:06.059Z,1004.2
2017-05-13T13:42:07.620Z,1004.3
2017-05-13T13:43:08.925Z,1004.3
2017-05-13T13:44:10.156Z,1004.3
2017-05-13T13:45:11.375Z,1004.3
2017-05-13T13:46:12.598Z,1004.3
2017-05-13T13:47:13.831Z,1004.3
2017-05-13T13:48:15.069Z,1004.2
2017-05-13T13:49:16.283Z,1004.2
2017-05-13T13:50:17.531Z,1004.3
2017-05-13T13:51:18.762Z,1004.2
2017-05-13T13:52:19.996Z,1004.2
2017-05-13T13:53:21.232Z,1004.2
2017-05-13T13:54:22.449Z,1004.2
2017-05-13T13:55:23.680Z,1004.1
2017-05-13T13:56:24.923Z,1004.1
2017-05-13T13:57:26.174Z,1004.1
2017-05-13T13:58:27.675Z,1004
2017-05-13T13:59:28.903Z,1004
2017-05-13T14:00:30.116Z,1004
2017-05-13T14:01:31.355Z,1004
2017-05-13T14:02:32.572Z,1003.9
2017-05-13T14:03:33.799Z,1003.9
2017-05-13T14:04:35.436Z,1003.9
2017-05-13T14:05:36.652Z,1003.9
2017-05-13T14:06:38.233Z,1004
2017-05-13T14:07:39.467Z,1004
2017-05-13T14:08:40.695Z,1004
2017-05-13T14:09:41.916Z,1004
2017-05-13T14:10:43.143Z,1004
2017-05-13T14:11:44.369Z,1004
2017-05-13T14:12:45.600Z,1004
2017-05-13T14:13:46.846Z,1004
2017-05-13T14:14:48.079Z,1004
2017-05-13T14:15:49.307Z,1004
2017-05-13T14:16:50.525Z,1004
2017-05-13T14:17:51.757Z,1004
2017-05-13T14:18:52.987Z,1004
2017-05-13T14:19:54.228Z,1004
2017-05-13T14:20:55.456Z,1004
2017-05-13T14:21:56.681Z,1004.1
2017-05-13T14:22:57.908Z,1004.1
2017-05-13T14:23:59.124Z,1004.1
2017-05-13T14:25:00.409Z,1004.1
2017-05-13T14:26:01.638Z,1004.1
2017-05-13T14:27:02.859Z,1004.1
2017-05-13T14:28:04.507Z,1004.1
2017-05-13T14:29:06.140Z,1004.1
2017-05-13T14:30:07.385Z,1004.1
2017-05-13T14:31:08.603Z,1004.1
2017-05-13T14:32:20.798Z,6722.2
2017-05-13T14:33:22.459Z,10040.2
2017-05-13T14:34:24.087Z,10040.1
2017-05-13T14:35:25.749Z,10039.8
2017-05-13T14:36:27.410Z,10039.9
2017-05-13T14:37:29.065Z,10040.1
2017-05-13T14:38:30.730Z,10040.2
2017-05-13T14:39:32.392Z,10040.2
2017-05-13T14:40:34.040Z,10040.2
2017-05-13T14:41:35.699Z,10040.4
2017-05-13T14:42:37.365Z,10040.4
2017-05-13T14:43:39.033Z,10040.6
2017-05-13T14:44:40.697Z,10040.7
2017-05-13T14:45:42.354Z,10040.9
2017-05-13T14:46:44.034Z,10040.9
2017-05-13T14:47:45.723Z,10041.2
2017-05-13T14:48:47.369Z,10040.7
2017-05-13T14:49:49.361Z,10041.2
2017-05-13T14:50:51.079Z,10041.7
2017-05-13T14:51:52.743Z,10041.8
2017-05-13T14:52:54.392Z,10041.9
2017-05-13T14:53:56.071Z,10042.3
2017-05-13T14:54:57.747Z,10042.2
2017-05-13T14:55:59.451Z,10042.5
2017-05-13T14:57:01.097Z,10043.2
2017-05-13T14:58:02.744Z,10043.2
2017-05-13T14:59:04.410Z,10043.3
2017-05-13T15:00:06.092Z,10043
2017-05-13T15:01:07.755Z,10043.3
2017-05-13T15:02:09.418Z,10043.7
2017-05-13T15:03:11.082Z,10043.3
2017-05-13T15:04:12.739Z,10043.6
2017-05-13T15:05:14.412Z,10043.4
2017-05-13T15:06:16.063Z,10043.3
2017-05-13T15:07:17.710Z,10043.7
2017-05-13T15:08:19.384Z,10044.1
2017-05-13T15:09:21.041Z,10044.2
2017-05-13T15:10:22.716Z,10044.6
2017-05-13T15:11:24.363Z,10044.2
2017-05-13T15:12:26.032Z,10044.6
2017-05-13T15:13:27.702Z,10044.7
2017-05-13T15:14:29.352Z,10045.1
2017-05-13T15:15:31.014Z,10044.7
2017-05-13T15:16:32.678Z,10045.1
2017-05-13T15:17:34.391Z,10045
2017-05-13T15:18:36.037Z,10045.6
2017-05-13T15:19:37.692Z,10045.2
2017-05-13T15:20:39.364Z,10044.9
2017-05-13T15:21:41.022Z,10045.5
2017-05-13T15:22:42.683Z,10045.7
2017-05-13T15:23:44.339Z,10045.9
2017-05-13T15:24:46.340Z,10045.7
2017-05-13T15:25:48.009Z,10046
2017-05-13T15:26:49.683Z,10046.3
2017-05-13T15:27:51.342Z,10046.1
2017-05-13T15:28:53.002Z,10045.9
2017-05-13T15:29:54.668Z,10046.1
2017-05-13T15:30:56.658Z,10046.3
2017-05-13T15:31:58.321Z,10046.4
2017-05-13T15:32:59.997Z,10046.6
2017-05-13T15:34:01.655Z,10046.3
2017-05-13T15:35:03.307Z,10046.3
2017-05-13T15:36:04.969Z,10046.2
2017-05-13T15:37:06.623Z,10046.7
2017-05-13T15:38:08.289Z,10046.5
2017-05-13T15:39:09.942Z,10046.6
2017-05-13T15:40:11.598Z,10046.6
2017-05-13T15:41:13.262Z,10046.6
2017-05-13T15:42:14.908Z,10046.7
2017-05-13T15:43:16.584Z,10047.2
2017-05-13T15:44:18.236Z,10046.8
2017-05-13T15:45:19.900Z,10046.5
2017-05-13T15:46:21.569Z,10046.9
2017-05-13T15:47:23.557Z,10047.1
2017-05-13T15:48:25.227Z,10047
2017-05-13T15:49:26.892Z,10046.8
2017-05-13T15:50:28.571Z,10047
2017-05-13T15:51:30.213Z,10047.2
2017-05-13T15:52:31.882Z,10047.1
2017-05-13T15:53:33.744Z,10047.1
2017-05-13T15:54:35.407Z,10047.3
2017-05-13T15:55:37.108Z,10047.1
2017-05-13T15:56:38.751Z,10047.2
2017-05-13T15:57:40.421Z,10046.8
2017-05-13T15:58:42.081Z,10046.7
2017-05-13T15:59:44.096Z,10046.7
2017-05-13T16:00:45.738Z,10046.6
2017-05-13T16:01:47.398Z,10046.6
2017-05-13T16:02:49.038Z,10046.6
2017-05-13T16:03:50.706Z,10046.4
2017-05-13T16:04:52.352Z,10046.4
2017-05-13T16:05:54.010Z,10046.3
2017-05-13T16:06:55.681Z,10046.3
2017-05-13T16:07:57.325Z,10046.2
2017-05-13T16:08:59.022Z,10046.3
2017-05-13T16:10:00.683Z,10046.2
2017-05-13T16:11:02.341Z,10045.9
2017-05-13T16:12:03.993Z,10046.2
2017-05-13T16:13:05.644Z,10045.8
2017-05-13T16:14:07.312Z,10046.3
2017-05-13T16:15:08.967Z,10046
2017-05-13T16:16:10.642Z,10046.3
2017-05-13T16:17:12.334Z,10046.3
2017-05-13T16:18:13.998Z,10047
2017-05-13T16:19:15.976Z,10046.6
2017-05-13T16:20:17.661Z,10047
2017-05-13T16:21:19.320Z,10047
2017-05-13T16:22:20.990Z,10047.2
2017-05-13T16:23:22.652Z,10047.2
2017-05-13T16:24:24.640Z,10047.6
2017-05-13T16:25:26.289Z,10047.5
2017-05-13T16:26:27.936Z,10047.3
2017-05-13T16:27:29.583Z,10047.3
2017-05-13T16:28:31.255Z,10047
2017-05-13T16:29:33.585Z,10047.5
2017-05-13T16:30:35.252Z,10047.5
2017-05-13T16:31:36.934Z,10047.3
2017-05-13T16:32:38.613Z,10047.5
2017-05-13T16:33:40.269Z,10047.5
2017-05-13T16:34:41.938Z,10047.4
2017-05-13T16:35:43.584Z,10047.5
2017-05-13T16:36:45.230Z,10047.6
2017-05-13T16:37:46.882Z,10047.7
2017-05-13T16:38:48.541Z,10047.5
2017-05-13T16:39:50.210Z,10047.5
2017-05-13T16:40:51.881Z,10047.8
2017-05-13T16:41:53.533Z,10047.5
2017-05-13T16:42:55.188Z,10047.5
2017-05-13T16:43:56.854Z,10047.5
2017-05-13T16:44:58.702Z,10047.7
2017-05-13T16:46:00.351Z,10047.5
2017-05-13T16:47:02.027Z,10047.4
2017-05-13T16:48:03.684Z,10047.5
2017-05-13T16:49:05.692Z,10047.6
2017-05-13T16:50:07.333Z,10047.4
2017-05-13T16:51:08.999Z,10047.5
2017-05-13T16:52:10.644Z,10047.5
2017-05-13T16:53:28.850Z,672.2
2017-05-13T16:54:30.078Z,1004.8
2017-05-13T16:55:31.632Z,1004.8
2017-05-13T16:56:32.873Z,1004.8
2017-05-13T16:57:34.112Z,1004.8
2017-05-13T16:58:35.342Z,1004.8
2017-05-13T16:59:36.587Z,1004.8
2017-05-13T17:00:37.826Z,1004.9
2017-05-13T17:01:39.050Z,1004.8
2017-05-13T17:02:40.278Z,1004.8
2017-05-13T17:03:41.508Z,1004.8
2017-05-13T17:04:42.754Z,1004.8
2017-05-13T17:05:43.993Z,1004.9
2017-05-13T17:06:45.558Z,1004.9
2017-05-13T17:07:46.807Z,1004.9
2017-05-13T17:08:48.065Z,1004.9
2017-05-13T17:09:49.618Z,1004.8
2017-05-13T17:10:50.846Z,1004.8
2017-05-13T17:11:52.079Z,1004.8
2017-05-13T17:12:53.329Z,1004.8
2017-05-13T17:13:54.547Z,1004.8
2017-05-13T17:14:56.181Z,1004.8
2017-05-13T17:15:57.762Z,1004.8
2017-05-13T17:16:59.012Z,1004.8
2017-05-13T17:18:00.232Z,1004.8
2017-05-13T17:19:01.462Z,1004.8
2017-05-13T17:20:02.703Z,1004.9
2017-05-13T17:21:03.922Z,1004.8
2017-05-13T17:22:05.158Z,1004.9
2017-05-13T17:23:06.749Z,1004.9
2017-05-13T17:24:07.990Z,1004.9
2017-05-13T17:25:09.221Z,1004.9
2017-05-13T17:26:10.456Z,1004.9
2017-05-13T17:27:11.681Z,1004.9
2017-05-13T17:28:12.908Z,1005.1
2017-05-13T17:29:14.150Z,1005
2017-05-13T17:30:15.387Z,1005
2017-05-13T17:31:16.645Z,1005.1
2017-05-13T17:32:17.871Z,1005.1
2017-05-13T17:33:19.111Z,1005.2
2017-05-13T17:34:20.694Z,1005.2
2017-05-13T17:35:21.922Z,1005.2
2017-05-13T17:36:23.150Z,1005.2
2017-05-13T17:37:24.383Z,1005.2
2017-05-13T17:38:25.632Z,1005.2
2017-05-13T17:39:26.859Z,1005.2
2017-05-13T17:40:28.135Z,1005.3
2017-05-13T17:41:29.378Z,1005.2
2017-05-13T17:42:30.611Z,1005.3
2017-05-13T17:43:31.845Z,1005.2
2017-05-13T17:44:33.073Z,1005.3
2017-05-13T17:45:34.662Z,1005.3
2017-05-13T17:46:36.236Z,1005.3
2017-05-13T17:47:37.474Z,1005.3
2017-05-13T17:48:38.713Z,1005.3
2017-05-13T17:49:39.956Z,1005.3
2017-05-13T17:50:41.197Z,1005.3
2017-05-13T17:51:42.477Z,1005.3
2017-05-13T17:52:43.712Z,1005.3
2017-05-13T17:53:45.296Z,1005.3
2017-05-13T17:54:46.540Z,1005.3
2017-05-13T17:55:47.763Z,1005.3
2017-05-13T17:56:48.997Z,1005.3
2017-05-13T17:57:50.221Z,1005.3
2017-05-13T17:58:51.461Z,1005.4
2017-05-13T17:59:52.699Z,1005.4
2017-05-13T18:00:53.936Z,1005.4
2017-05-13T18:01:55.177Z,1005.4
2017-05-13T18:02:56.397Z,1005.4
2017-05-13T18:03:57.636Z,1005.4
2017-05-13T18:04:59.204Z,1005.4
2017-05-13T18:06:00.455Z,1005.3
2017-05-13T18:07:01.689Z,1005.3
2017-05-13T18:08:02.914Z,1005.3
2017-05-13T18:09:04.144Z,1005.3
2017-05-13T18:10:05.717Z,1005.3
2017-05-13T18:11:06.977Z,1005.3
2017-05-13T18:12:08.198Z,1005.3
2017-05-13T18:13:09.437Z,1005.3
2017-05-13T18:14:10.676Z,1005.3
2017-05-13T18:15:11.917Z,1005.3
2017-05-13T18:16:13.192Z,1005.3
2017-05-13T18:17:14.462Z,1005.4
2017-05-13T18:18:15.700Z,1005.4
2017-05-13T18:19:16.937Z,1005.4
2017-05-13T18:20:18.190Z,1005.5
2017-05-13T18:21:19.412Z,1005.5
2017-05-13T18:22:20.661Z,1005.5
2017-05-13T18:23:21.884Z,1005.5
2017-05-13T18:24:23.125Z,1005.6
2017-05-13T18:25:24.358Z,1005.6
2017-05-13T18:26:25.596Z,1005.6
2017-05-13T18:27:26.834Z,1005.6
2017-05-13T18:28:28.056Z,1005.7
2017-05-13T18:29:29.282Z,1005.7
2017-05-13T18:30:30.526Z,1005.7
2017-05-13T18:31:31.761Z,1005.7
2017-05-13T18:32:33.333Z,1005.7
2017-05-13T18:33:34.556Z,1005.7
2017-05-13T18:34:35.793Z,1005.8
2017-05-13T18:35:37.064Z,1005.8
2017-05-13T18:36:38.313Z,1005.8
2017-05-13T18:37:39.547Z,1005.8
2017-05-13T18:38:40.790Z,1005.8
2017-05-13T18:39:42.025Z,1005.9
2017-05-13T18:40:43.252Z,1005.9
2017-05-13T18:41:44.483Z,1005.9
2017-05-13T18:42:45.733Z,1006
2017-05-13T18:43:46.978Z,1006
2017-05-13T18:44:48.209Z,1006
2017-05-13T18:45:49.445Z,1006
2017-05-13T18:46:50.675Z,1006
2017-05-13T18:47:51.902Z,1006
2017-05-13T18:48:53.134Z,1006
2017-05-13T18:49:54.366Z,1006
2017-05-13T18:50:55.607Z,1006.1
2017-05-13T18:51:56.829Z,1006.1
2017-05-13T18:52:58.082Z,1006.1
2017-05-13T18:53:59.320Z,1006.2
2017-05-13T18:55:00.578Z,1006.1
2017-05-13T18:56:01.805Z,1006.1
2017-05-13T18:57:03.029Z,1006.1
2017-05-13T18:58:04.259Z,1006.1
2017-05-13T18:59:05.498Z,1006.2
2017-05-13T19:00:06.750Z,1006.3
2017-05-13T19:01:07.983Z,1006.2
2017-05-13T19:02:09.216Z,1006.3
2017-05-13T19:03:10.449Z,1006.3
2017-05-13T19:04:11.699Z,1006.3
2017-05-13T19:05:12.927Z,1006.3
2017-05-13T19:06:14.153Z,1006.3
2017-05-13T19:07:15.396Z,1006.4
2017-05-13T19:08:16.631Z,1006.4
2017-05-13T19:09:17.925Z,1006.4
2017-05-13T19:10:19.142Z,1006.4
2017-05-13T19:11:20.382Z,1006.5
2017-05-13T19:12:21.600Z,1006.5
2017-05-13T19:13:23.189Z,1006.5
2017-05-13T19:14:24.422Z,1006.5
2017-05-13T19:15:25.649Z,1006.5
2017-05-13T19:16:26.888Z,1006.5
2017-05-13T19:17:28.110Z,1006.5
2017-05-13T19:18:29.349Z,1006.5
2017-05-13T19:19:30.594Z,1006.6
2017-05-13T19:20:31.827Z,1006.5
2017-05-13T19:21:33.054Z,1006.5
2017-05-13T19:22:34.279Z,1006.6
2017-05-13T19:23:35.521Z,1006.6
2017-05-13T19:24:36.761Z,1006.6
2017-05-13T19:25:38.007Z,1006.6
2017-05-13T19:26:39.251Z,1006.6
2017-05-13T19:27:40.485Z,1006.6
2017-05-13T19:28:42.058Z,1006.6
2017-05-13T19:29:43.304Z,1006.6
2017-05-13T19:30:44.527Z,1006.6
2017-05-13T19:31:45.819Z,1006.7
2017-05-13T19:32:47.060Z,1006.7
2017-05-13T19:33:48.297Z,1006.7
2017-05-13T19:34:49.540Z,1006.7
2017-05-13T19:35:50.771Z,1006.7
2017-05-13T19:36:52.009Z,1006.7
2017-05-13T19:37:53.241Z,1006.7
2017-05-13T19:38:54.473Z,1006.7
2017-05-13T19:39:55.707Z,1006.6
2017-05-13T19:40:56.945Z,1006.7
2017-05-13T19:41:58.223Z,1006.7
2017-05-13T19:42:59.464Z,1006.7
2017-05-13T19:44:01.070Z,1006.7
2017-05-13T19:45:02.292Z,1006.7
2017-05-13T19:46:03.518Z,1006.7
2017-05-13T19:47:04.748Z,1006.7
2017-05-13T19:48:05.989Z,1006.6
2017-05-13T19:49:07.241Z,1006.7
2017-05-13T19:50:08.479Z,1006.7
2017-05-13T19:51:09.707Z,1006.7
2017-05-13T19:52:10.943Z,1006.7
2017-05-13T19:53:12.186Z,1006.7
2017-05-13T19:54:13.457Z,1006.6
2017-05-13T19:55:14.702Z,1006.7
2017-05-13T19:56:15.917Z,1006.8
2017-05-13T19:57:17.192Z,1006.8
2017-05-13T19:58:18.439Z,1006.8
2017-05-13T19:59:19.657Z,1006.8
2017-05-13T20:00:20.899Z,1006.8
2017-05-13T20:01:22.125Z,1006.8
2017-05-13T20:02:23.372Z,1006.8
2017-05-13T20:03:24.600Z,1006.9
2017-05-13T20:04:26.164Z,1006.9
2017-05-13T20:05:27.411Z,1006.9
2017-05-13T20:06:28.659Z,1006.9
2017-05-13T20:07:29.875Z,1006.9
2017-05-13T20:08:31.116Z,1006.9
2017-05-13T20:09:32.363Z,1006.9
2017-05-13T20:10:33.588Z,1006.9
2017-05-13T20:11:35.150Z,1006.9
2017-05-13T20:12:36.448Z,1006.9
2017-05-13T20:13:37.689Z,1006.9
2017-05-13T20:14:38.926Z,1007
2017-05-13T20:15:40.196Z,1006.9
2017-05-13T20:16:41.441Z,1006.9
2017-05-13T20:17:42.685Z,1006.9
2017-05-13T20:18:43.935Z,1006.9
2017-05-13T20:19:45.172Z,1006.9
2017-05-13T20:20:46.419Z,1006.9
2017-05-13T20:21:47.641Z,1006.9
2017-05-13T20:22:48.882Z,1006.8
2017-05-13T20:23:50.135Z,1006.9
2017-05-13T20:24:51.355Z,1006.8
2017-05-13T20:25:52.593Z,1006.8
2017-05-13T20:26:53.826Z,1006.8
2017-05-13T20:27:55.072Z,1006.8
2017-05-13T20:28:56.301Z,1006.8
2017-05-13T20:29:57.540Z,1006.8
2017-05-13T20:30:58.775Z,1006.8
2017-05-13T20:32:00.015Z,1006.8
2017-05-13T20:33:01.605Z,1006.8
2017-05-13T20:34:02.838Z,1006.8
2017-05-13T20:35:04.413Z,1006.8
2017-05-13T20:36:05.632Z,1006.8
2017-05-13T20:37:06.882Z,1006.8
2017-05-13T20:38:08.117Z,1006.8
2017-05-13T20:39:09.371Z,1006.8
2017-05-13T20:40:10.593Z,1006.8
2017-05-13T20:41:12.154Z,1006.8
2017-05-13T20:42:13.387Z,1006.8
2017-05-13T20:43:14.632Z,1006.9
2017-05-13T20:44:15.866Z,1006.9
2017-05-13T20:45:17.085Z,1006.9
2017-05-13T20:46:18.366Z,1007
2017-05-13T20:47:19.591Z,1007
2017-05-13T20:48:20.833Z,1007.1
2017-05-13T20:49:22.081Z,1007.1
2017-05-13T20:50:23.307Z,1007.1
2017-05-13T20:51:24.537Z,1007.1
2017-05-13T20:52:25.767Z,1007.1
2017-05-13T20:53:27.348Z,1007.1
2017-05-13T20:54:28.594Z,1007.1
2017-05-13T20:55:30.151Z,1007.1
2017-05-13T20:56:31.734Z,1007.2
2017-05-13T20:57:32.965Z,1007.2
2017-05-13T20:58:34.218Z,1007.3
2017-05-13T20:59:35.452Z,1007.2
2017-05-13T21:00:36.690Z,1007.3
2017-05-13T21:01:37.921Z,1007.3
2017-05-13T21:02:39.155Z,1007.3
2017-05-13T21:03:40.410Z,1007.3
2017-05-13T21:04:41.639Z,1007.3
2017-05-13T21:05:42.878Z,1007.3
2017-05-13T21:06:44.797Z,1007.3
2017-05-13T21:07:46.368Z,1007.3
2017-05-13T21:08:47.600Z,1007.3
2017-05-13T21:09:49.189Z,1007.3
2017-05-13T21:10:50.420Z,1007.2
2017-05-13T21:11:51.646Z,1007.2
2017-05-13T21:12:52.891Z,1007.2
2017-05-13T21:13:54.122Z,1007.2
2017-05-13T21:14:55.343Z,1007.2
2017-05-13T21:15:56.931Z,1007.2
2017-05-13T21:16:58.173Z,1007.1
2017-05-13T21:17:59.403Z,1007.2
2017-05-13T21:19:00.969Z,1007.2
2017-05-13T21:20:02.197Z,1007.1
2017-05-13T21:21:03.430Z,1007.1
2017-05-13T21:22:04.669Z,1007.1
2017-05-13T21:23:05.906Z,1007.1
2017-05-13T21:24:07.153Z,1007.1
2017-05-13T21:25:08.746Z,1007.1
2017-05-13T21:26:09.983Z,1007.1
2017-05-13T21:27:11.228Z,1007
2017-05-13T21:28:12.473Z,1007
2017-05-13T21:29:13.699Z,1006.9
2017-05-13T21:30:14.937Z,1006.9
2017-05-13T21:31:16.179Z,1006.8
2017-05-13T21:32:17.432Z,1006.8
2017-05-13T21:33:18.682Z,1006.9
2017-05-13T21:34:19.932Z,1006.9
2017-05-13T21:35:21.176Z,1006.9
2017-05-13T21:36:22.421Z,1006.9
2017-05-13T21:37:23.690Z,1007
2017-05-13T21:38:24.938Z,1007
2017-05-13T21:39:26.215Z,1007
2017-05-13T21:40:27.471Z,1007
2017-05-13T21:41:29.082Z,1007.1
2017-05-13T21:42:30.323Z,1007.1
2017-05-13T21:43:31.575Z,1007.1
2017-05-13T21:44:32.803Z,1007.2
2017-05-13T21:45:34.377Z,1007.2
2017-05-13T21:46:35.592Z,1007.2
2017-05-13T21:47:36.850Z,1007.2
2017-05-13T21:48:38.092Z,1007.2
2017-05-13T21:49:39.335Z,1007.2
2017-05-13T21:50:40.569Z,1007.2
2017-05-13T21:51:41.821Z,1007.2
2017-05-13T21:52:43.039Z,1007.2
2017-05-13T21:53:44.278Z,1007.2
2017-05-13T21:54:45.519Z,1007.2
2017-05-13T21:55:47.092Z,1007.2
2017-05-13T21:56:48.319Z,1007.3
2017-05-13T21:57:49.594Z,1007.3
2017-05-13T21:58:50.848Z,1007.3
2017-05-13T21:59:52.424Z,1007.3
2017-05-13T22:00:53.650Z,1007.3
2017-05-13T22:01:54.902Z,1007.3
2017-05-13T22:02:56.134Z,1007.3
2017-05-13T22:03:57.367Z,1007.3
2017-05-13T22:04:58.600Z,1007.2
2017-05-13T22:05:59.853Z,1007.2
2017-05-13T22:07:01.448Z,1007.2
2017-05-13T22:08:02.687Z,1007.2
2017-05-13T22:09:03.918Z,1007.2
2017-05-13T22:10:05.162Z,1007.2
2017-05-13T22:11:06.395Z,1007.2
2017-05-13T22:12:07.631Z,1007.2
2017-05-13T22:13:08.870Z,1007.2
2017-05-13T22:14:10.105Z,1007.2
2017-05-13T22:15:11.327Z,1007.2
2017-05-13T22:16:12.567Z,1007.3
2017-05-13T22:17:13.800Z,1007.3
2017-05-13T22:18:15.380Z,1007.3
2017-05-13T22:19:16.623Z,1007.3
2017-05-13T22:20:17.837Z,1007.3
2017-05-13T22:21:19.073Z,1007.2
2017-05-13T22:22:20.322Z,1007.2
2017-05-13T22:23:21.536Z,1007.2
2017-05-13T22:24:22.777Z,1007.2
2017-05-13T22:25:24.008Z,1007.3
2017-05-13T22:26:25.262Z,1007.3
2017-05-13T22:27:26.824Z,1007.3
2017-05-13T22:28:28.077Z,1007.3
2017-05-13T22:29:29.673Z,1007.2